aviador You're here:

OINE Decoded Metar

KALALEH in IRAN
Report Time2017-10-22 16:00:00
UTC Time2017-10-22 17:04:40
Flight Rules vfr VFR
WindCalm
Visibility9999 m
Phenomena:N/A
Clouds:N/A
Expected CloudBase > 4,400 ft AGL from Temp-Dew spread
CeilingNone
Temp17°C (ISA +3)
Dew Point06°C (49% RH)
AAT16.1°C
QNH1010 hPa
Density Alt991 ft
Elevation425 ft
Report Wrong Elevation
Raw Report
METAR OINE 221600Z 00000KT CAVOK 17/06 Q1010=

Extra information for OINE:More info

Metar Taf Metar & Taf Last 4 Metars F.Rules Stats Wind Profile Meteogram Temp Stats Airport Information Weather charts Add Link Nearby VenuesMetar ALERT Operation Metar Decoded Social comments